sensor_id;sensor_type;location;lat;lon;timestamp;temperature;humidity
8664;DHT22;4369;47.842;13.096;2023-07-13T00:00:36;19.50;99.90
8664;DHT22;4369;47.842;13.096;2023-07-13T00:03:02;19.50;99.90
8664;DHT22;4369;47.842;13.096;2023-07-13T00:05:30;19.40;99.90
8664;DHT22;4369;47.842;13.096;2023-07-13T00:07:59;19.30;99.90
8664;DHT22;4369;47.842;13.096;2023-07-13T00:10:26;19.30;99.90
8664;DHT22;4369;47.842;13.096;2023-07-13T00:12:52;19.10;99.90
8664;DHT22;4369;47.842;13.096;2023-07-13T00:15:25;19.00;99.90
8664;DHT22;4369;47.842;13.096;2023-07-13T00:17:54;18.90;99.90
8664;DHT22;4369;47.842;13.096;2023-07-13T00:20:22;18.90;99.90
8664;DHT22;4369;47.842;13.096;2023-07-13T00:22:50;19.00;99.90
8664;DHT22;4369;47.842;13.096;2023-07-13T00:25:20;19.00;99.90
8664;DHT22;4369;47.842;13.096;2023-07-13T00:27:50;19.00;99.90
8664;DHT22;4369;47.842;13.096;2023-07-13T00:30:17;19.10;99.90
8664;DHT22;4369;47.842;13.096;2023-07-13T00:32:44;19.00;99.90
8664;DHT22;4369;47.842;13.096;2023-07-13T00:35:13;19.00;99.90
8664;DHT22;4369;47.842;13.096;2023-07-13T00:37:41;18.80;99.90
8664;DHT22;4369;47.842;13.096;2023-07-13T00:40:09;18.90;99.90
8664;DHT22;4369;47.842;13.096;2023-07-13T00:42:38;18.80;99.90
8664;DHT22;4369;47.842;13.096;2023-07-13T00:46:02;18.80;99.90
8664;DHT22;4369;47.842;13.096;2023-07-13T00:47:57;18.70;99.90
8664;DHT22;4369;47.842;13.096;2023-07-13T00:50:24;18.60;99.90
8664;DHT22;4369;47.842;13.096;2023-07-13T00:52:54;18.50;99.90
8664;DHT22;4369;47.842;13.096;2023-07-13T00:55:23;18.50;99.90
8664;DHT22;4369;47.842;13.096;2023-07-13T00:57:51;18.40;99.90
8664;DHT22;4369;47.842;13.096;2023-07-13T01:00:21;18.50;99.90
8664;DHT22;4369;47.842;13.096;2023-07-13T01:02:48;18.50;99.90
8664;DHT22;4369;47.842;13.096;2023-07-13T01:05:18;18.70;99.90
8664;DHT22;4369;47.842;13.096;2023-07-13T01:07:46;18.80;99.90
8664;DHT22;4369;47.842;13.096;2023-07-13T01:10:14;18.80;99.90
8664;DHT22;4369;47.842;13.096;2023-07-13T01:12:41;18.80;99.90
8664;DHT22;4369;47.842;13.096;2023-07-13T01:15:35;19.00;99.90
8664;DHT22;4369;47.842;13.096;2023-07-13T01:18:03;18.90;99.90
8664;DHT22;4369;47.842;13.096;2023-07-13T01:20:30;19.00;99.90
8664;DHT22;4369;47.842;13.096;2023-07-13T01:23:03;19.00;99.90
8664;DHT22;4369;47.842;13.096;2023-07-13T01:25:32;19.20;99.90
8664;DHT22;4369;47.842;13.096;2023-07-13T01:27:58;19.30;99.90
8664;DHT22;4369;47.842;13.096;2023-07-13T01:30:25;19.20;99.90
8664;DHT22;4369;47.842;13.096;2023-07-13T01:32:52;19.10;99.90
8664;DHT22;4369;47.842;13.096;2023-07-13T01:35:19;19.10;99.90
8664;DHT22;4369;47.842;13.096;2023-07-13T01:37:46;19.00;99.90
8664;DHT22;4369;47.842;13.096;2023-07-13T01:40:14;19.00;99.90
8664;DHT22;4369;47.842;13.096;2023-07-13T01:42:41;19.10;99.90
8664;DHT22;4369;47.842;13.096;2023-07-13T01:45:08;19.10;99.90
8664;DHT22;4369;47.842;13.096;2023-07-13T01:47:35;19.00;99.90
8664;DHT22;4369;47.842;13.096;2023-07-13T01:50:02;19.10;99.90
8664;DHT22;4369;47.842;13.096;2023-07-13T01:52:29;19.10;99.90
8664;DHT22;4369;47.842;13.096;2023-07-13T01:54:56;19.10;99.90
8664;DHT22;4369;47.842;13.096;2023-07-13T01:57:24;19.10;99.90
8664;DHT22;4369;47.842;13.096;2023-07-13T01:59:51;19.10;99.90
8664;DHT22;4369;47.842;13.096;2023-07-13T02:02:18;19.10;99.90
8664;DHT22;4369;47.842;13.096;2023-07-13T02:04:45;19.00;99.90
8664;DHT22;4369;47.842;13.096;2023-07-13T02:07:12;18.90;99.90
8664;DHT22;4369;47.842;13.096;2023-07-13T02:09:40;18.80;99.90
8664;DHT22;4369;47.842;13.096;2023-07-13T02:12:08;18.80;99.90
8664;DHT22;4369;47.842;13.096;2023-07-13T02:14:36;18.60;99.90
8664;DHT22;4369;47.842;13.096;2023-07-13T02:17:04;18.50;99.90
8664;DHT22;4369;47.842;13.096;2023-07-13T02:19:31;18.50;99.90
8664;DHT22;4369;47.842;13.096;2023-07-13T02:21:58;18.50;99.90
8664;DHT22;4369;47.842;13.096;2023-07-13T02:24:24;18.50;99.90
8664;DHT22;4369;47.842;13.096;2023-07-13T02:26:52;18.40;99.90
8664;DHT22;4369;47.842;13.096;2023-07-13T02:29:19;18.40;99.90
8664;DHT22;4369;47.842;13.096;2023-07-13T02:31:47;18.40;99.90
8664;DHT22;4369;47.842;13.096;2023-07-13T02:34:14;18.40;99.90
8664;DHT22;4369;47.842;13.096;2023-07-13T02:36:40;18.50;99.90
8664;DHT22;4369;47.842;13.096;2023-07-13T02:39:07;18.50;99.90
8664;DHT22;4369;47.842;13.096;2023-07-13T02:41:35;18.60;99.90
8664;DHT22;4369;47.842;13.096;2023-07-13T02:44:02;18.60;99.90
8664;DHT22;4369;47.842;13.096;2023-07-13T02:46:29;18.60;99.90
8664;DHT22;4369;47.842;13.096;2023-07-13T02:48:57;18.60;99.90
8664;DHT22;4369;47.842;13.096;2023-07-13T02:51:24;18.60;99.90
8664;DHT22;4369;47.842;13.096;2023-07-13T02:53:51;18.60;99.90
8664;DHT22;4369;47.842;13.096;2023-07-13T02:56:21;18.40;99.90
8664;DHT22;4369;47.842;13.096;2023-07-13T02:58:48;18.40;99.90
8664;DHT22;4369;47.842;13.096;2023-07-13T03:01:15;18.40;99.90
8664;DHT22;4369;47.842;13.096;2023-07-13T03:03:44;18.40;99.90
8664;DHT22;4369;47.842;13.096;2023-07-13T03:06:14;18.40;99.90
8664;DHT22;4369;47.842;13.096;2023-07-13T03:08:41;18.40;99.90
8664;DHT22;4369;47.842;13.096;2023-07-13T03:11:09;18.40;99.90
8664;DHT22;4369;47.842;13.096;2023-07-13T03:13:37;18.30;99.90
8664;DHT22;4369;47.842;13.096;2023-07-13T03:16:04;18.30;99.90
8664;DHT22;4369;47.842;13.096;2023-07-13T03:18:31;18.30;99.90
8664;DHT22;4369;47.842;13.096;2023-07-13T03:20:58;18.30;99.90
8664;DHT22;4369;47.842;13.096;2023-07-13T03:23:27;18.30;99.90
8664;DHT22;4369;47.842;13.096;2023-07-13T03:26:02;18.20;99.90
8664;DHT22;4369;47.842;13.096;2023-07-13T03:28:29;18.10;99.90
8664;DHT22;4369;47.842;13.096;2023-07-13T03:31:00;18.20;99.90
8664;DHT22;4369;47.842;13.096;2023-07-13T03:33:27;18.20;99.90
8664;DHT22;4369;47.842;13.096;2023-07-13T03:35:54;18.30;99.90
8664;DHT22;4369;47.842;13.096;2023-07-13T03:38:21;18.30;99.90
8664;DHT22;4369;47.842;13.096;2023-07-13T03:40:49;18.20;99.90
8664;DHT22;4369;47.842;13.096;2023-07-13T03:43:16;18.30;99.90
8664;DHT22;4369;47.842;13.096;2023-07-13T03:45:43;18.30;99.90
8664;DHT22;4369;47.842;13.096;2023-07-13T03:48:10;18.30;99.90
8664;DHT22;4369;47.842;13.096;2023-07-13T03:50:37;18.30;99.90
8664;DHT22;4369;47.842;13.096;2023-07-13T03:53:04;18.30;99.90
8664;DHT22;4369;47.842;13.096;2023-07-13T03:55:31;18.30;99.90
8664;DHT22;4369;47.842;13.096;2023-07-13T04:00:48;18.40;99.90
8664;DHT22;4369;47.842;13.096;2023-07-13T04:03:15;18.50;99.90
8664;DHT22;4369;47.842;13.096;2023-07-13T04:05:43;18.50;99.90
8664;DHT22;4369;47.842;13.096;2023-07-13T04:08:09;18.40;99.90
8664;DHT22;4369;47.842;13.096;2023-07-13T04:10:36;18.40;99.90
8664;DHT22;4369;47.842;13.096;2023-07-13T04:13:05;18.40;99.90
8664;DHT22;4369;47.842;13.096;2023-07-13T04:15:32;18.50;99.90
8664;DHT22;4369;47.842;13.096;2023-07-13T04:17:59;18.50;99.90
8664;DHT22;4369;47.842;13.096;2023-07-13T04:20:26;18.40;99.90
8664;DHT22;4369;47.842;13.096;2023-07-13T04:22:53;18.40;99.90
8664;DHT22;4369;47.842;13.096;2023-07-13T04:25:20;18.30;99.90
8664;DHT22;4369;47.842;13.096;2023-07-13T04:27:47;18.30;99.90
8664;DHT22;4369;47.842;13.096;2023-07-13T04:30:16;18.30;99.90
8664;DHT22;4369;47.842;13.096;2023-07-13T04:32:42;18.40;99.90
8664;DHT22;4369;47.842;13.096;2023-07-13T04:35:09;18.40;99.90
8664;DHT22;4369;47.842;13.096;2023-07-13T04:37:36;18.40;99.90
8664;DHT22;4369;47.842;13.096;2023-07-13T04:40:04;18.50;99.90
8664;DHT22;4369;47.842;13.096;2023-07-13T04:42:31;18.50;99.90
8664;DHT22;4369;47.842;13.096;2023-07-13T04:45:00;18.60;99.90
8664;DHT22;4369;47.842;13.096;2023-07-13T04:47:30;18.60;99.90
8664;DHT22;4369;47.842;13.096;2023-07-13T04:49:56;18.60;99.90
8664;DHT22;4369;47.842;13.096;2023-07-13T04:52:23;18.60;99.90
8664;DHT22;4369;47.842;13.096;2023-07-13T04:54:50;18.70;99.90
8664;DHT22;4369;47.842;13.096;2023-07-13T04:57:17;18.60;99.90
8664;DHT22;4369;47.842;13.096;2023-07-13T04:59:44;18.60;99.90
8664;DHT22;4369;47.842;13.096;2023-07-13T05:02:11;18.70;99.90
8664;DHT22;4369;47.842;13.096;2023-07-13T05:04:39;18.70;99.90
8664;DHT22;4369;47.842;13.096;2023-07-13T05:07:06;18.70;99.90
8664;DHT22;4369;47.842;13.096;2023-07-13T05:09:33;18.70;99.90
8664;DHT22;4369;47.842;13.096;2023-07-13T05:12:00;18.90;99.90
8664;DHT22;4369;47.842;13.096;2023-07-13T05:14:27;18.70;99.90
8664;DHT22;4369;47.842;13.096;2023-07-13T05:16:53;18.70;99.90
8664;DHT22;4369;47.842;13.096;2023-07-13T05:19:23;18.80;99.90
8664;DHT22;4369;47.842;13.096;2023-07-13T05:21:51;18.80;99.90
8664;DHT22;4369;47.842;13.096;2023-07-13T05:24:18;18.80;99.90
8664;DHT22;4369;47.842;13.096;2023-07-13T05:26:45;19.00;99.90
8664;DHT22;4369;47.842;13.096;2023-07-13T05:29:12;19.00;99.90
8664;DHT22;4369;47.842;13.096;2023-07-13T05:31:39;19.20;99.90
8664;DHT22;4369;47.842;13.096;2023-07-13T05:34:05;19.20;99.90
8664;DHT22;4369;47.842;13.096;2023-07-13T05:36:32;19.20;99.90
8664;DHT22;4369;47.842;13.096;2023-07-13T05:39:02;19.30;99.90
8664;DHT22;4369;47.842;13.096;2023-07-13T05:41:29;19.40;99.90
8664;DHT22;4369;47.842;13.096;2023-07-13T05:43:56;19.30;99.90
8664;DHT22;4369;47.842;13.096;2023-07-13T05:46:23;19.30;99.90
8664;DHT22;4369;47.842;13.096;2023-07-13T05:48:49;19.40;99.90
8664;DHT22;4369;47.842;13.096;2023-07-13T05:51:16;19.40;99.90
8664;DHT22;4369;47.842;13.096;2023-07-13T05:53:43;19.40;99.90
8664;DHT22;4369;47.842;13.096;2023-07-13T05:56:11;19.50;99.90
8664;DHT22;4369;47.842;13.096;2023-07-13T05:58:38;19.50;99.90
8664;DHT22;4369;47.842;13.096;2023-07-13T06:01:09;19.60;99.90
8664;DHT22;4369;47.842;13.096;2023-07-13T06:03:36;19.50;99.90
8664;DHT22;4369;47.842;13.096;2023-07-13T06:06:04;19.70;99.90
8664;DHT22;4369;47.842;13.096;2023-07-13T06:08:32;19.80;99.90
8664;DHT22;4369;47.842;13.096;2023-07-13T06:11:03;19.90;99.90
8664;DHT22;4369;47.842;13.096;2023-07-13T06:13:32;19.70;99.90
8664;DHT22;4369;47.842;13.096;2023-07-13T06:15:59;19.70;99.90
8664;DHT22;4369;47.842;13.096;2023-07-13T06:18:29;19.80;99.90
8664;DHT22;4369;47.842;13.096;2023-07-13T06:20:56;19.80;99.90
8664;DHT22;4369;47.842;13.096;2023-07-13T06:23:24;19.80;99.90
8664;DHT22;4369;47.842;13.096;2023-07-13T06:25:51;19.70;99.90
8664;DHT22;4369;47.842;13.096;2023-07-13T06:28:19;19.70;99.90
8664;DHT22;4369;47.842;13.096;2023-07-13T06:30:47;19.70;99.90
8664;DHT22;4369;47.842;13.096;2023-07-13T06:33:14;19.70;99.90
8664;DHT22;4369;47.842;13.096;2023-07-13T06:35:41;19.80;99.90
8664;DHT22;4369;47.842;13.096;2023-07-13T06:38:08;19.80;99.90
8664;DHT22;4369;47.842;13.096;2023-07-13T06:40:35;19.80;99.90
8664;DHT22;4369;47.842;13.096;2023-07-13T06:43:01;19.80;99.90
8664;DHT22;4369;47.842;13.096;2023-07-13T06:45:28;19.70;99.90
8664;DHT22;4369;47.842;13.096;2023-07-13T06:47:56;19.80;99.90
8664;DHT22;4369;47.842;13.096;2023-07-13T06:50:23;19.70;99.90
8664;DHT22;4369;47.842;13.096;2023-07-13T06:52:50;19.60;99.90
8664;DHT22;4369;47.842;13.096;2023-07-13T06:55:18;19.60;99.90
8664;DHT22;4369;47.842;13.096;2023-07-13T06:57:45;19.50;99.90
8664;DHT22;4369;47.842;13.096;2023-07-13T07:00:13;19.40;99.90
8664;DHT22;4369;47.842;13.096;2023-07-13T07:02:40;19.30;99.90
8664;DHT22;4369;47.842;13.096;2023-07-13T07:05:08;19.40;99.90
8664;DHT22;4369;47.842;13.096;2023-07-13T07:07:35;19.50;99.90
8664;DHT22;4369;47.842;13.096;2023-07-13T07:10:02;19.50;99.90
8664;DHT22;4369;47.842;13.096;2023-07-13T07:12:29;19.60;99.90
8664;DHT22;4369;47.842;13.096;2023-07-13T07:14:57;19.60;99.90
8664;DHT22;4369;47.842;13.096;2023-07-13T07:17:24;19.70;99.90
8664;DHT22;4369;47.842;13.096;2023-07-13T07:19:52;19.70;99.90
8664;DHT22;4369;47.842;13.096;2023-07-13T07:22:21;19.70;99.90
8664;DHT22;4369;47.842;13.096;2023-07-13T07:24:48;19.70;99.90
8664;DHT22;4369;47.842;13.096;2023-07-13T07:27:15;19.70;99.90
8664;DHT22;4369;47.842;13.096;2023-07-13T07:29:41;19.90;99.90
8664;DHT22;4369;47.842;13.096;2023-07-13T07:32:08;19.80;99.90
8664;DHT22;4369;47.842;13.096;2023-07-13T07:34:35;19.70;99.90
8664;DHT22;4369;47.842;13.096;2023-07-13T07:37:02;19.80;99.90
8664;DHT22;4369;47.842;13.096;2023-07-13T07:39:31;19.90;99.90
8664;DHT22;4369;47.842;13.096;2023-07-13T07:41:58;19.90;99.90
8664;DHT22;4369;47.842;13.096;2023-07-13T07:44:25;20.00;99.90
8664;DHT22;4369;47.842;13.096;2023-07-13T07:46:52;19.90;99.90
8664;DHT22;4369;47.842;13.096;2023-07-13T07:49:20;19.90;99.90
8664;DHT22;4369;47.842;13.096;2023-07-13T07:51:46;20.00;99.90
8664;DHT22;4369;47.842;13.096;2023-07-13T07:54:13;20.10;99.90
8664;DHT22;4369;47.842;13.096;2023-07-13T07:56:41;20.20;99.90
8664;DHT22;4369;47.842;13.096;2023-07-13T07:59:09;20.10;99.90
8664;DHT22;4369;47.842;13.096;2023-07-13T08:01:35;20.00;99.90
8664;DHT22;4369;47.842;13.096;2023-07-13T08:04:03;20.00;99.90
8664;DHT22;4369;47.842;13.096;2023-07-13T08:06:31;20.00;99.90
8664;DHT22;4369;47.842;13.096;2023-07-13T08:08:59;19.90;99.90
8664;DHT22;4369;47.842;13.096;2023-07-13T08:11:27;20.00;99.90
8664;DHT22;4369;47.842;13.096;2023-07-13T08:13:55;20.10;99.90
8664;DHT22;4369;47.842;13.096;2023-07-13T08:16:23;20.20;99.90
8664;DHT22;4369;47.842;13.096;2023-07-13T08:18:50;20.10;99.90
8664;DHT22;4369;47.842;13.096;2023-07-13T08:21:17;20.10;99.90
8664;DHT22;4369;47.842;13.096;2023-07-13T08:23:45;20.00;99.90
8664;DHT22;4369;47.842;13.096;2023-07-13T08:26:12;19.90;99.90
8664;DHT22;4369;47.842;13.096;2023-07-13T08:28:40;19.80;99.90
8664;DHT22;4369;47.842;13.096;2023-07-13T08:31:09;19.90;99.90
8664;DHT22;4369;47.842;13.096;2023-07-13T08:33:37;20.10;99.90
8664;DHT22;4369;47.842;13.096;2023-07-13T08:36:06;20.30;99.90
8664;DHT22;4369;47.842;13.096;2023-07-13T08:38:33;20.40;99.90
8664;DHT22;4369;47.842;13.096;2023-07-13T08:41:09;20.30;99.90
8664;DHT22;4369;47.842;13.096;2023-07-13T08:43:37;20.20;99.90
8664;DHT22;4369;47.842;13.096;2023-07-13T08:46:11;20.30;99.90
8664;DHT22;4369;47.842;13.096;2023-07-13T08:48:43;20.20;99.90
8664;DHT22;4369;47.842;13.096;2023-07-13T08:51:21;20.10;99.90
8664;DHT22;4369;47.842;13.096;2023-07-13T08:53:55;20.30;99.90
8664;DHT22;4369;47.842;13.096;2023-07-13T08:56:26;20.30;99.90
8664;DHT22;4369;47.842;13.096;2023-07-13T08:58:56;20.20;99.90
8664;DHT22;4369;47.842;13.096;2023-07-13T09:01:35;20.30;99.90
8664;DHT22;4369;47.842;13.096;2023-07-13T09:04:11;20.40;99.90
8664;DHT22;4369;47.842;13.096;2023-07-13T09:07:02;20.50;99.90
8664;DHT22;4369;47.842;13.096;2023-07-13T09:09:38;20.50;99.90
8664;DHT22;4369;47.842;13.096;2023-07-13T09:12:13;20.60;99.90
8664;DHT22;4369;47.842;13.096;2023-07-13T09:14:47;20.80;99.90
8664;DHT22;4369;47.842;13.096;2023-07-13T09:17:19;20.80;99.90
8664;DHT22;4369;47.842;13.096;2023-07-13T09:19:53;20.90;99.90
8664;DHT22;4369;47.842;13.096;2023-07-13T09:22:22;20.90;99.90
8664;DHT22;4369;47.842;13.096;2023-07-13T09:24:57;20.90;99.90
8664;DHT22;4369;47.842;13.096;2023-07-13T09:27:30;20.90;99.90
8664;DHT22;4369;47.842;13.096;2023-07-13T09:30:11;20.70;99.90
8664;DHT22;4369;47.842;13.096;2023-07-13T09:32:50;20.70;99.90
8664;DHT22;4369;47.842;13.096;2023-07-13T09:35:20;20.90;99.90
8664;DHT22;4369;47.842;13.096;2023-07-13T09:37:48;20.90;99.90
8664;DHT22;4369;47.842;13.096;2023-07-13T09:40:22;21.00;99.90
8664;DHT22;4369;47.842;13.096;2023-07-13T09:42:51;21.10;99.90
8664;DHT22;4369;47.842;13.096;2023-07-13T09:45:27;21.10;99.90
8664;DHT22;4369;47.842;13.096;2023-07-13T09:48:04;21.10;99.90
8664;DHT22;4369;47.842;13.096;2023-07-13T09:50:31;21.10;99.90
8664;DHT22;4369;47.842;13.096;2023-07-13T09:53:00;21.10;99.90
8664;DHT22;4369;47.842;13.096;2023-07-13T09:55:30;21.20;99.90
8664;DHT22;4369;47.842;13.096;2023-07-13T09:58:03;21.30;99.90
8664;DHT22;4369;47.842;13.096;2023-07-13T10:00:31;21.50;99.90
8664;DHT22;4369;47.842;13.096;2023-07-13T10:03:03;21.60;99.90
8664;DHT22;4369;47.842;13.096;2023-07-13T10:05:41;21.90;99.90
8664;DHT22;4369;47.842;13.096;2023-07-13T10:08:21;22.00;99.90
8664;DHT22;4369;47.842;13.096;2023-07-13T10:10:53;22.20;99.90
8664;DHT22;4369;47.842;13.096;2023-07-13T10:13:33;22.00;99.90
8664;DHT22;4369;47.842;13.096;2023-07-13T10:16:03;22.10;99.90
8664;DHT22;4369;47.842;13.096;2023-07-13T10:18:41;22.30;99.90
8664;DHT22;4369;47.842;13.096;2023-07-13T10:21:12;22.50;91.40
8664;DHT22;4369;47.842;13.096;2023-07-13T10:23:41;22.40;75.80
8664;DHT22;4369;47.842;13.096;2023-07-13T10:26:14;22.20;73.70
8664;DHT22;4369;47.842;13.096;2023-07-13T10:28:43;22.00;60.40
8664;DHT22;4369;47.842;13.096;2023-07-13T10:31:14;21.60;96.60
8664;DHT22;4369;47.842;13.096;2023-07-13T10:33:44;21.70;99.90
8664;DHT22;4369;47.842;13.096;2023-07-13T10:36:17;21.80;75.00
8664;DHT22;4369;47.842;13.096;2023-07-13T10:38:49;22.00;99.90
8664;DHT22;4369;47.842;13.096;2023-07-13T10:41:19;22.10;89.80
8664;DHT22;4369;47.842;13.096;2023-07-13T10:43:48;22.00;74.90
8664;DHT22;4369;47.842;13.096;2023-07-13T10:46:19;22.10;54.30
8664;DHT22;4369;47.842;13.096;2023-07-13T10:48:50;21.90;23.40
8664;DHT22;4369;47.842;13.096;2023-07-13T10:51:19;21.90;45.80
8664;DHT22;4369;47.842;13.096;2023-07-13T10:53:47;21.70;51.50
8664;DHT22;4369;47.842;13.096;2023-07-13T10:56:22;21.60;79.30
8664;DHT22;4369;47.842;13.096;2023-07-13T10:59:02;21.50;92.80
8664;DHT22;4369;47.842;13.096;2023-07-13T11:01:40;21.70;93.00
8664;DHT22;4369;47.842;13.096;2023-07-13T11:04:12;21.80;40.00
8664;DHT22;4369;47.842;13.096;2023-07-13T11:06:41;22.00;34.90
8664;DHT22;4369;47.842;13.096;2023-07-13T11:09:31;22.20;50.10
8664;DHT22;4369;47.842;13.096;2023-07-13T11:11:59;22.30;49.60
8664;DHT22;4369;47.842;13.096;2023-07-13T11:14:29;22.10;56.60
8664;DHT22;4369;47.842;13.096;2023-07-13T11:16:57;21.90;65.30
8664;DHT22;4369;47.842;13.096;2023-07-13T11:19:44;21.80;72.90
8664;DHT22;4369;47.842;13.096;2023-07-13T11:22:24;21.80;39.00
8664;DHT22;4369;47.842;13.096;2023-07-13T11:25:01;21.70;50.00
8664;DHT22;4369;47.842;13.096;2023-07-13T11:27:41;21.70;37.10
8664;DHT22;4369;47.842;13.096;2023-07-13T11:30:26;21.70;28.80
8664;DHT22;4369;47.842;13.096;2023-07-13T11:33:04;21.60;15.70
8664;DHT22;4369;47.842;13.096;2023-07-13T11:35:44;21.60;41.10
8664;DHT22;4369;47.842;13.096;2023-07-13T11:38:17;21.80;25.20
8664;DHT22;4369;47.842;13.096;2023-07-13T11:40:46;22.00;17.90
8664;DHT22;4369;47.842;13.096;2023-07-13T11:43:15;22.20;1.00
8664;DHT22;4369;47.842;13.096;2023-07-13T11:45:43;22.30;1.00
8664;DHT22;4369;47.842;13.096;2023-07-13T11:48:22;22.20;1.00
8664;DHT22;4369;47.842;13.096;2023-07-13T11:50:53;22.40;1.00
8664;DHT22;4369;47.842;13.096;2023-07-13T11:53:21;22.50;1.00
8664;DHT22;4369;47.842;13.096;2023-07-13T11:55:48;22.60;99.90
8664;DHT22;4369;47.842;13.096;2023-07-13T11:58:21;22.60;99.90
8664;DHT22;4369;47.842;13.096;2023-07-13T12:00:49;22.40;99.90
8664;DHT22;4369;47.842;13.096;2023-07-13T12:03:20;22.50;64.10
8664;DHT22;4369;47.842;13.096;2023-07-13T12:05:59;22.40;52.90
8664;DHT22;4369;47.842;13.096;2023-07-13T12:08:26;22.60;99.90
8664;DHT22;4369;47.842;13.096;2023-07-13T12:11:02;22.40;32.20
8664;DHT22;4369;47.842;13.096;2023-07-13T12:13:36;22.20;98.00
8664;DHT22;4369;47.842;13.096;2023-07-13T12:16:12;21.70;93.10
8664;DHT22;4369;47.842;13.096;2023-07-13T12:18:42;21.60;1.00
8664;DHT22;4369;47.842;13.096;2023-07-13T12:21:17;21.70;1.00
8664;DHT22;4369;47.842;13.096;2023-07-13T12:23:46;21.60;99.90
8664;DHT22;4369;47.842;13.096;2023-07-13T12:26:15;21.50;1.00
8664;DHT22;4369;47.842;13.096;2023-07-13T12:28:46;21.40;99.90
8664;DHT22;4369;47.842;13.096;2023-07-13T12:31:25;21.20;99.90
8664;DHT22;4369;47.842;13.096;2023-07-13T12:34:01;21.20;1.00
8664;DHT22;4369;47.842;13.096;2023-07-13T12:36:35;21.10;1.00
8664;DHT22;4369;47.842;13.096;2023-07-13T12:39:14;21.10;1.00
8664;DHT22;4369;47.842;13.096;2023-07-13T12:41:42;21.00;99.90
8664;DHT22;4369;47.842;13.096;2023-07-13T12:44:12;21.10;99.90
8664;DHT22;4369;47.842;13.096;2023-07-13T12:46:39;21.10;1.00
8664;DHT22;4369;47.842;13.096;2023-07-13T12:49:07;21.00;99.90
8664;DHT22;4369;47.842;13.096;2023-07-13T12:51:36;21.10;1.00
8664;DHT22;4369;47.842;13.096;2023-07-13T12:54:15;21.10;1.00
8664;DHT22;4369;47.842;13.096;2023-07-13T12:56:43;21.20;99.90
8664;DHT22;4369;47.842;13.096;2023-07-13T12:59:17;21.20;99.90
8664;DHT22;4369;47.842;13.096;2023-07-13T13:01:45;21.40;1.00
8664;DHT22;4369;47.842;13.096;2023-07-13T13:04:12;21.90;99.90
8664;DHT22;4369;47.842;13.096;2023-07-13T13:06:41;22.30;99.90
8664;DHT22;4369;47.842;13.096;2023-07-13T13:09:13;22.50;99.90
8664;DHT22;4369;47.842;13.096;2023-07-13T13:11:40;22.90;99.90
8664;DHT22;4369;47.842;13.096;2023-07-13T13:14:08;23.40;59.80
8664;DHT22;4369;47.842;13.096;2023-07-13T13:16:37;24.00;47.30
8664;DHT22;4369;47.842;13.096;2023-07-13T13:19:13;23.90;1.00
8664;DHT22;4369;47.842;13.096;2023-07-13T13:21:42;23.80;1.00
8664;DHT22;4369;47.842;13.096;2023-07-13T13:24:12;23.70;1.00
8664;DHT22;4369;47.842;13.096;2023-07-13T13:26:40;23.90;1.00
8664;DHT22;4369;47.842;13.096;2023-07-13T13:29:12;24.20;1.00
8664;DHT22;4369;47.842;13.096;2023-07-13T13:31:40;24.30;1.00
8664;DHT22;4369;47.842;13.096;2023-07-13T13:34:09;24.70;1.00
8664;DHT22;4369;47.842;13.096;2023-07-13T13:36:37;24.70;1.00
8664;DHT22;4369;47.842;13.096;2023-07-13T13:39:18;24.70;1.00
8664;DHT22;4369;47.842;13.096;2023-07-13T13:41:46;24.60;1.00
8664;DHT22;4369;47.842;13.096;2023-07-13T13:44:15;24.90;1.00
8664;DHT22;4369;47.842;13.096;2023-07-13T13:46:44;25.30;1.00
8664;DHT22;4369;47.842;13.096;2023-07-13T13:49:14;25.10;1.00
8664;DHT22;4369;47.842;13.096;2023-07-13T13:51:43;25.40;1.00
8664;DHT22;4369;47.842;13.096;2023-07-13T13:54:13;25.80;1.00
8664;DHT22;4369;47.842;13.096;2023-07-13T13:56:42;25.70;1.00
8664;DHT22;4369;47.842;13.096;2023-07-13T13:59:09;26.10;1.00
8664;DHT22;4369;47.842;13.096;2023-07-13T14:01:36;26.70;1.00
8664;DHT22;4369;47.842;13.096;2023-07-13T14:04:05;27.20;1.00
8664;DHT22;4369;47.842;13.096;2023-07-13T14:06:33;28.70;1.00
8664;DHT22;4369;47.842;13.096;2023-07-13T14:09:00;30.20;1.00
8664;DHT22;4369;47.842;13.096;2023-07-13T14:11:30;30.80;1.00
8664;DHT22;4369;47.842;13.096;2023-07-13T14:13:59;31.60;1.00
8664;DHT22;4369;47.842;13.096;2023-07-13T14:16:28;31.40;1.00
8664;DHT22;4369;47.842;13.096;2023-07-13T14:18:57;33.20;1.00
8664;DHT22;4369;47.842;13.096;2023-07-13T14:21:27;31.20;1.00
8664;DHT22;4369;47.842;13.096;2023-07-13T14:23:54;30.80;1.00
8664;DHT22;4369;47.842;13.096;2023-07-13T14:26:23;31.30;1.00
8664;DHT22;4369;47.842;13.096;2023-07-13T14:28:54;31.90;1.00
8664;DHT22;4369;47.842;13.096;2023-07-13T14:31:26;32.50;1.00
8664;DHT22;4369;47.842;13.096;2023-07-13T14:33:54;32.80;1.00
8664;DHT22;4369;47.842;13.096;2023-07-13T14:36:25;31.80;1.00
8664;DHT22;4369;47.842;13.096;2023-07-13T14:38:53;30.70;1.00
8664;DHT22;4369;47.842;13.096;2023-07-13T14:41:20;30.20;1.00
8664;DHT22;4369;47.842;13.096;2023-07-13T14:43:47;30.30;1.00
8664;DHT22;4369;47.842;13.096;2023-07-13T14:46:26;31.00;1.00
8664;DHT22;4369;47.842;13.096;2023-07-13T14:49:00;31.50;1.00
8664;DHT22;4369;47.842;13.096;2023-07-13T14:51:28;32.40;1.00
8664;DHT22;4369;47.842;13.096;2023-07-13T14:53:54;31.80;1.00
8664;DHT22;4369;47.842;13.096;2023-07-13T14:56:22;31.30;1.00
8664;DHT22;4369;47.842;13.096;2023-07-13T14:58:49;31.10;1.00
8664;DHT22;4369;47.842;13.096;2023-07-13T15:01:16;31.60;1.00
8664;DHT22;4369;47.842;13.096;2023-07-13T15:03:46;31.90;1.00
8664;DHT22;4369;47.842;13.096;2023-07-13T15:06:14;32.70;1.00
8664;DHT22;4369;47.842;13.096;2023-07-13T15:08:41;32.90;1.00
8664;DHT22;4369;47.842;13.096;2023-07-13T15:11:08;32.50;1.00
8664;DHT22;4369;47.842;13.096;2023-07-13T15:13:37;32.70;1.00
8664;DHT22;4369;47.842;13.096;2023-07-13T15:16:04;32.90;1.00
8664;DHT22;4369;47.842;13.096;2023-07-13T15:18:34;33.20;1.00
8664;DHT22;4369;47.842;13.096;2023-07-13T15:21:10;32.80;1.00
8664;DHT22;4369;47.842;13.096;2023-07-13T15:23:39;32.20;1.00
8664;DHT22;4369;47.842;13.096;2023-07-13T15:26:10;31.90;1.00
8664;DHT22;4369;47.842;13.096;2023-07-13T15:28:38;31.40;1.00
8664;DHT22;4369;47.842;13.096;2023-07-13T15:31:18;31.00;1.00
8664;DHT22;4369;47.842;13.096;2023-07-13T15:33:45;30.40;1.00
8664;DHT22;4369;47.842;13.096;2023-07-13T15:36:16;30.30;1.00
8664;DHT22;4369;47.842;13.096;2023-07-13T15:38:43;30.20;1.00
8664;DHT22;4369;47.842;13.096;2023-07-13T15:41:17;29.60;1.00
8664;DHT22;4369;47.842;13.096;2023-07-13T15:43:44;29.30;1.00
8664;DHT22;4369;47.842;13.096;2023-07-13T15:46:11;29.10;1.00
8664;DHT22;4369;47.842;13.096;2023-07-13T15:48:38;29.00;1.00
8664;DHT22;4369;47.842;13.096;2023-07-13T15:51:11;28.30;1.00
8664;DHT22;4369;47.842;13.096;2023-07-13T15:53:40;28.30;1.00
8664;DHT22;4369;47.842;13.096;2023-07-13T15:56:17;28.10;1.00
8664;DHT22;4369;47.842;13.096;2023-07-13T15:58:44;28.30;1.00
8664;DHT22;4369;47.842;13.096;2023-07-13T16:01:12;28.40;1.00
8664;DHT22;4369;47.842;13.096;2023-07-13T16:03:39;27.80;1.00
8664;DHT22;4369;47.842;13.096;2023-07-13T16:06:12;27.30;1.00